• Join FlightAware (Why Join?)
  • Login
  • US Flag 
10:01AM EST


 

Airport Tracker/Info


-or-


 

Live Flight TrackerFlight Track Log ✈ UAL444 ✈ 21-Jul-2013 ✈ KCLE - KSFO

Flight Track Log - Related Links

Times and Time Zones

All times are in EDT time to prevent confusion due to time zone crossing. See the UAL444 flight status page for this flight to view local times or setup timezone preferences in your user account.

Time Position Orientation Groundspeed Altitude Reporting Facility
EDT Latitude Longitude Course Direction KTS MPH feet Rate Location/Type
10:24PM 41.4194 -81.8375 359° North 160 184 1,700  Level Cleveland Center
10:25PM 41.4528 -81.8381 359° North 193 222 2,400 1,500 Climbing Cleveland Center
10:25PM 41.4986 -81.8500 349° North 252 290 3,700 2,040 Climbing Cleveland Center
10:26PM 41.5206 -81.9228 292° West 292 336 5,900 2,520 Climbing Cleveland Center
10:27PM 41.4778 -82.0106 237° Southwest 316 364 8,800 2,220 Climbing Cleveland Center
10:28PM 41.4308 -82.1008 235° Southwest 310 357 10,400 1,620 Climbing Cleveland Center
10:29PM 41.3772 -82.2075 236° Southwest 325 374 12,100 1,800 Climbing Cleveland Center
10:30PM 41.3214 -82.3167 236° Southwest 358 412 14,000 1,920 Climbing Cleveland Center
10:31PM 41.2633 -82.4283 235° Southwest 371 427 16,000 1,620 Climbing Cleveland Center
10:32PM 41.2094 -82.5317 235° Southwest 377 434 17,300 1,500 Climbing Cleveland Center
10:33PM 41.1492 -82.6514 236° Southwest 383 441 19,000 1,560 Climbing Cleveland Center
10:34PM 41.0989 -82.7764 242° Southwest 389 448 20,500 1,380 Climbing Cleveland Center
10:35PM 41.0772 -82.9217 259° West 390 449 21,800 1,320 Climbing Cleveland Center
10:36PM 41.0575 -83.0614 259° West 395 455 23,200 1,260 Climbing Cleveland Center
10:37PM 41.0394 -83.2122 261° West 407 468 24,400 1,080 Climbing Cleveland Center
10:39PM 41.0008 -83.4556 258° West 407 468 26,000 1,020 Climbing Indianapolis Center
10:40PM 40.9783 -83.6064 259° West 420 483 27,100 900 Climbing Indianapolis Center
10:41PM 40.9508 -83.7556 256° West 418 481 27,900 900 Climbing Indianapolis Center
10:42PM 40.8961 -83.8933 242° Southwest 423 487 29,000 960 Climbing Indianapolis Center
10:43PM 40.8394 -84.0261 241° Southwest 416 479 29,900 780 Climbing Indianapolis Center
10:44PM 40.7819 -84.1581 240° Southwest 415 478 30,700 780 Climbing Indianapolis Center
10:45PM 40.7242 -84.2914 240° Southwest 416 479 31,500 780 Climbing Indianapolis Center
10:46PM 40.6686 -84.4219 241° Southwest 409 471 32,300 840 Climbing Indianapolis Center
10:47PM 40.6261 -84.5333 243° Southwest 407 468 33,100 780 Climbing Indianapolis Center
10:48PM 40.5911 -84.6733 252° West 401 461 33,800 420 Climbing Indianapolis Center
10:49PM 40.5539 -84.8108 250° West 398 458 34,000 60 Climbing Indianapolis Center
10:50PM 40.5156 -84.9572 251° West 397 457 34,000  Level Indianapolis Center
10:51PM 40.4775 -85.0947 250° West 400 460 34,000  Level Indianapolis Center
10:52PM 40.4403 -85.2314 250° West 399 459 34,000  Level Indianapolis Center
10:53PM 40.4033 -85.3681 250° West 400 460 34,000  Level Indianapolis Center
10:54PM 40.3869 -85.4203 248° West 400 460 34,000  Level Chicago Center
10:55PM 40.3672 -85.5922 261° West 408 470 34,000  Level Chicago Center
10:56PM 40.3769 -85.7403 275° West 412 474 34,000  Level Chicago Center
10:57PM 40.3867 -85.8869 275° West 410 472 34,000  Level Chicago Center
10:58PM 40.3961 -86.0336 275° West 408 470 34,000  Level Chicago Center
10:59PM 40.4050 -86.1778 275° West 403 464 34,000  Level Chicago Center
11:00PM 40.4147 -86.3247 275° West 407 468 34,000  Level Chicago Center
11:01PM 40.4236 -86.4719 275° West 411 473 34,000  Level Chicago Center
11:02PM 40.4333 -86.6481 274° West 409 471 34,000  Level Chicago Center
11:03PM 40.4419 -86.7981 274° West 414 476 34,000  Level Chicago Center
11:04PM 40.4503 -86.9486 274° West 418 481 34,000  Level Chicago Center
11:05PM 40.4586 -87.0981 274° West 417 480 34,000  Level Chicago Center
11:06PM 40.4669 -87.2547 274° West 418 481 34,000  Level Chicago Center
11:07PM 40.4736 -87.4072 273° West 420 483 34,000  Level Chicago Center
11:08PM 40.4828 -87.5575 275° West 415 478 34,000  Level Chicago Center
11:09PM 40.4889 -87.7108 273° West 420 483 34,000  Level Chicago Center
11:10PM 40.4975 -87.8617 274° West 420 483 34,000  Level Chicago Center
11:11PM 40.5047 -88.0142 274° West 419 482 34,000  Level Chicago Center
11:12PM 40.5131 -88.1947 274° West 415 478 34,000  Level Chicago Center
11:13PM 40.5192 -88.3397 273° West 405 466 34,000  Level Chicago Center
11:14PM 40.5267 -88.4886 274° West 408 470 34,000  Level Chicago Center
11:15PM 40.5336 -88.6378 274° West 411 473 34,000  Level Chicago Center
11:16PM 40.5392 -88.7869 273° West 410 472 34,000  Level Chicago Center
11:17PM 40.5453 -88.9375 273° West 411 473 34,000  Level Chicago Center
11:18PM 40.5500 -89.0878 272° West 413 475 34,000  Level Chicago Center
11:19PM 40.5547 -89.2381 272° West 411 473 34,000  Level Chicago Center
11:20PM 40.5594 -89.3908 272° West 414 476 34,000  Level Chicago Center
11:21PM 40.5644 -89.5444 273° West 418 481 34,000  Level Chicago Center
11:22PM 40.5689 -89.7275 272° West 429 494 34,000  Level Chicago Center
11:23PM 40.5783 -89.8892 274° West 438 504 34,000  Level Chicago Center
11:24PM 40.5811 -90.0508 271° West 444 511 34,000  Level Chicago Center
11:25PM 40.5867 -90.2122 273° West 444 511 34,000  Level Chicago Center
11:26PM 40.5897 -90.3314 272° West 444 511 34,000  Level Chicago Center
11:27PM 40.5936 -90.4931 272° West 443 510 34,000  Level Chicago Center
11:28PM 40.5964 -90.6528 271° West 440 506 34,000  Level Chicago Center
11:29PM 40.6006 -90.8136 272° West 440 506 34,000  Level Chicago Center
11:30PM 40.6042 -91.0069 271° West 440 506 34,000  Level Chicago Center
11:31PM 40.6078 -91.1689 272° West 442 509 34,000  Level Chicago Center
11:32PM 40.6092 -91.2958 271° West 444 511 34,000  Level Kansas City Center
11:33PM 40.6128 -91.4878 271° West 443 510 34,000  Level Kansas City Center
11:34PM 40.6156 -91.6467 271° West 440 506 34,000  Level Kansas City Center
11:35PM 40.6181 -91.8056 271° West 439 505 34,000  Level Kansas City Center
11:36PM 40.6194 -91.9642 271° West 439 505 34,000  Level Kansas City Center
11:37PM 40.6225 -92.1231 272° West 440 506 34,000  Level Kansas City Center
11:38PM 40.6231 -92.2808 270° West 439 505 34,000  Level Kansas City Center
11:39PM 40.6256 -92.4386 271° West 439 505 34,000  Level Kansas City Center
11:40PM 40.6272 -92.6281 271° West 441 507 34,000  Level Minneapolis Center
11:41PM 40.6275 -92.7872 270° West 443 510 34,000  Level Minneapolis Center
11:42PM 40.6286 -92.9458 271° West 442 509 34,000  Level Minneapolis Center
11:43PM 40.6278 -93.1053 270° West 442 509 34,000  Level Minneapolis Center
11:44PM 40.6297 -93.2600 271° West 432 497 34,000  Level Minneapolis Center
11:45PM 40.6278 -93.4514 269° West 438 504 34,000  Level Minneapolis Center
11:46PM 40.6272 -93.6119 270° West 441 507 34,000  Level Minneapolis Center
11:47PM 40.6269 -93.7728 270° West 443 510 34,000  Level Minneapolis Center
11:48PM 40.6258 -93.9328 270° West 443 510 34,000  Level Minneapolis Center
11:49PM 40.6239 -94.0933 269° West 443 510 34,000  Level Minneapolis Center
11:50PM 40.6233 -94.2503 270° West 439 505 34,000  Level Minneapolis Center
11:51PM 40.6219 -94.4114 269° West 443 510 34,000  Level Minneapolis Center
11:52PM 40.6203 -94.5783 269° West 442 509 34,000  Level Minneapolis Center
11:53PM 40.6189 -94.7081 269° West 443 510 34,000  Level Minneapolis Center
11:54PM 40.6150 -94.9025 269° West 443 510 34,000  Level Minneapolis Center
11:55PM 40.6147 -95.0656 270° West 445 512 34,000  Level Minneapolis Center
11:56PM 40.6114 -95.2608 269° West 445 512 34,000  Level Minneapolis Center
11:57PM 40.6094 -95.4239 269° West 444 511 34,000  Level Minneapolis Center
11:59PM 40.6064 -95.5861 269° West 443 510 34,000  Level Minneapolis Center
12:00AM 40.6031 -95.7475 268° West 441 507 34,000  Level Minneapolis Center
12:01AM 40.5997 -95.9117 269° West 445 512 34,000  Level Minneapolis Center
12:02AM 40.5961 -96.0758 268° West 447 514 34,000  Level Minneapolis Center
12:03AM 40.5928 -96.2392 269° West 445 512 34,000  Level Minneapolis Center
12:04AM 40.5881 -96.4019 268° West 445 512 34,000  Level Minneapolis Center
12:05AM 40.5844 -96.5650 268° West 445 512 34,000  Level Minneapolis Center
12:06AM 40.5789 -96.7272 267° West 443 510 34,000  Level Minneapolis Center
12:07AM 40.5750 -96.8869 268° West 439 505 34,000  Level Minneapolis Center
12:08AM 40.5700 -97.0478 268° West 438 504 34,000  Level Minneapolis Center
12:09AM 40.5650 -97.2081 268° West 439 505 34,000  Level Minneapolis Center
12:10AM 40.5583 -97.3594 267° West 435 501 34,000  Level Minneapolis Center
12:11AM 40.5544 -97.5169 268° West 432 497 34,000  Level Minneapolis Center
12:12AM 40.5478 -97.6733 267° West 429 494 34,000  Level Minneapolis Center
12:13AM 40.5408 -97.8631 267° West 431 496 34,000  Level Minneapolis Center
12:14AM 40.5333 -98.0544 267° West 435 501 34,100  Climbing Minneapolis Center
12:15AM 40.5269 -98.2150 267° West 438 504 34,100 -60 Level Minneapolis Center
12:16AM 40.5181 -98.4056 267° West 435 501 34,000 -60 Descending Minneapolis Center
12:17AM 40.5122 -98.5642 267° West 433 498 34,000  Level Minneapolis Center
12:18AM 40.5044 -98.7233 266° West 435 501 34,000  Level Minneapolis Center
12:19AM 40.4967 -98.8822 266° West 434 499 34,000  Level Minneapolis Center
12:20AM 40.4900 -99.0400 267° West 433 498 34,000  Level Minneapolis Center
12:21AM 40.4825 -99.1944 266° West 429 494 34,000  Level Minneapolis Center
12:22AM 40.4750 -99.3497 266° West 426 490 34,000  Level Minneapolis Center
12:23AM 40.4683 -99.4736 266° West 427 491 34,000  Level Denver Center
12:24AM 40.4594 -99.6317 266° West 433 498 34,000  Level Denver Center
12:25AM 40.4508 -99.7886 266° West 431 496 34,000  Level Denver Center
12:26AM 40.4411 -99.9511 266° West 433 498 34,000  Level Denver Center
12:27AM 40.4311 -100.1294 266° West 437 503 34,000  Level Denver Center
12:28AM 40.4222 -100.2822 266° West 438 504 34,100  Climbing Denver Center
12:29AM 40.4114 -100.4603 265° West 437 503 34,000 -60 Descending Denver Center
12:30AM 40.4017 -100.6122 265° West 434 499 34,000 60 Level Denver Center
12:31AM 40.3917 -100.7636 265° West 433 498 34,200 540 Climbing Denver Center
12:32AM 40.3803 -100.9397 265° West 433 498 35,100 840 Climbing Denver Center
12:33AM 40.3703 -101.0861 265° West 422 486 36,000 360 Climbing Denver Center
12:35AM 40.3606 -101.2328 265° West 420 483 36,000  Level Denver Center
12:36AM 40.3481 -101.4267 265° West 417 480 36,000  Level Denver Center
12:37AM 40.3375 -101.5733 265° West 420 483 36,000  Level Denver Center
12:38AM 40.3250 -101.7428 265° West 419 482 36,000  Level Denver Center
12:39AM 40.3156 -101.8872 265° West 416 479 36,000  Level Denver Center
12:40AM 40.3036 -102.0289 264° West 410 472 36,000  Level Denver Center
12:41AM 40.2917 -102.1933 265° West 408 470 36,000  Level Denver Center
12:42AM 40.2797 -102.3344 264° West 407 468 36,000  Level Denver Center
12:43AM 40.2683 -102.4747 264° West 406 467 36,000  Level Denver Center
12:44AM 40.2567 -102.6392 265° West 406 467 36,000  Level Denver Center
12:45AM 40.2458 -102.7764 264° West 408 470 36,000  Level Denver Center
12:46AM 40.2336 -102.9236 264° West 408 470 36,000  Level Denver Center
12:47AM 40.2214 -103.0717 264° West 411 473 36,000  Level Denver Center
12:48AM 40.2081 -103.2192 263° West 410 472 36,000  Level Denver Center
12:49AM 40.1953 -103.3658 264° West 408 470 36,000  Level Denver Center
12:50AM 40.1814 -103.5411 264° West 407 468 36,000  Level Denver Center
12:51AM 40.1686 -103.6853 263° West 402 463 36,000  Level Denver Center
12:52AM 40.1550 -103.8319 263° West 408 470 36,000  Level Denver Center
12:53AM 40.1392 -104.0042 263° West 403 464 36,000  Level Denver Center
12:54AM 40.1261 -104.1486 263° West 401 461 36,000  Level Denver Center
12:55AM 40.1125 -104.2933 263° West 404 465 36,000  Level Denver Center
12:56AM 40.0986 -104.4367 263° West 400 460 36,000  Level Denver Center
12:57AM 40.0856 -104.5822 263° West 406 467 36,000  Level Denver Center
12:58AM 40.0717 -104.7272 263° West 406 467 36,000  Level Denver Center
12:59AM 40.0569 -104.8725 263° West 408 470 36,000  Level Denver Center
01:00AM 40.0386 -105.0417 262° West 396 456 36,000  Level Denver Center
01:01AM 40.0242 -105.1878 263° West 406 467 36,000  Level Denver Center
01:02AM 40.0094 -105.3297 262° West 399 459 36,000  Level Denver Center
01:03AM 39.9939 -105.4753 262° West 404 465 36,000  Level Denver Center
01:04AM 39.9789 -105.6175 262° West 403 464 36,000  Level Denver Center
01:05AM 39.9625 -105.7636 262° West 409 471 36,000  Level Denver Center
01:06AM 39.9475 -105.9064 262° West 398 458 36,000  Level Denver Center
01:07AM 39.9314 -106.0531 262° West 408 470 36,000  Level Denver Center
01:08AM 39.9147 -106.1986 262° West 408 470 36,000  Level Denver Center
01:09AM 39.8981 -106.3436 262° West 407 468 36,000  Level Denver Center
01:10AM 39.8789 -106.5108 262° West 404 465 36,000  Level Denver Center
01:11AM 39.8653 -106.6450 263° West 404 465 36,000  Level Denver Center
01:12AM 39.8486 -106.7906 262° West 408 470 36,000  Level Denver Center
01:13AM 39.8314 -106.9364 261° West 411 473 36,000  Level Denver Center
01:14AM 39.8131 -107.0808 261° West 408 470 36,000  Level Denver Center
01:15AM 39.7953 -107.2322 261° West 407 468 36,000  Level Denver Center
01:16AM 39.7747 -107.3961 261° West 409 471 36,000  Level Denver Center
01:17AM 39.7567 -107.5367 261° West 413 475 36,000  Level Denver Center
01:18AM 39.7397 -107.6781 261° West 413 475 36,000  Level Denver Center
01:19AM 39.7186 -107.8408 260° West 411 473 36,000  Level Denver Center
01:20AM 39.7003 -107.9814 260° West 412 474 36,000  Level Denver Center
01:22AM 39.6806 -108.1439 261° West 407 468 36,000  Level Denver Center
01:23AM 39.6558 -108.3275 260° West 404 465 36,000  Level Denver Center
01:24AM 39.6381 -108.4672 261° West 405 466 36,000  Level Denver Center
01:25AM 39.6161 -108.6319 260° West 421 484 36,000  Level Denver Center
01:26AM 39.5914 -108.7842 258° West 432 497 36,000  Level Denver Center
01:27AM 39.5750 -108.9278 262° West 415 478 36,000  Level Denver Center
01:28AM 39.5561 -109.0675 260° West 411 473 36,000  Level Denver Center
01:29AM 39.5336 -109.2289 260° West 407 468 36,000  Level Denver Center
01:30AM 39.5142 -109.3694 260° West 415 478 36,000  Level Denver Center
01:31AM 39.4944 -109.5086 260° West 412 474 36,000  Level Denver Center
01:32AM 39.4750 -109.6497 260° West 415 478 36,000  Level Denver Center
01:33AM 39.4508 -109.8125 259° West 412 474 36,000  Level Denver Center
01:34AM 39.4317 -109.9536 260° West 415 478 36,000  Level Denver Center
01:35AM 39.4103 -110.0936 259° West 416 479 36,000  Level Denver Center
01:36AM 39.3856 -110.2572 259° West 414 476 36,000  Level Denver Center
01:37AM 39.3647 -110.3981 259° West 416 479 36,000  Level Denver Center
01:38AM 39.3442 -110.5389 259° West 417 480 36,000  Level Denver Center
01:39AM 39.3222 -110.7047 260° West 420 483 36,000  Level Denver Center
01:40AM 39.2872 -110.9169 258° West 422 486 36,000  Level Salt Lake Center
01:41AM 39.2650 -111.0583 259° West 422 486 36,000  Level Salt Lake Center
01:43AM 39.2383 -111.2247 258° West 423 487 36,000  Level Salt Lake Center
01:44AM 39.2150 -111.3744 259° West 423 487 36,000  Level Salt Lake Center
01:45AM 39.1911 -111.5256 259° West 429 494 36,000  Level Salt Lake Center
01:46AM 39.1664 -111.6761 258° West 430 495 36,000  Level Salt Lake Center
01:47AM 39.1428 -111.8256 259° West 428 493 36,000  Level Salt Lake Center
01:48AM 39.1181 -111.9767 258° West 431 496 36,000  Level Salt Lake Center
01:49AM 39.0933 -112.1269 258° West 431 496 36,000  Level Salt Lake Center
01:50AM 39.0678 -112.2747 257° West 426 490 36,000  Level Salt Lake Center
01:51AM 39.0428 -112.4242 258° West 427 491 36,000  Level Salt Lake Center
01:52AM 39.0178 -112.5717 258° West 425 489 36,000  Level Salt Lake Center
01:53AM 38.9928 -112.7200 258° West 426 490 36,000  Level Salt Lake Center
01:54AM 38.9667 -112.8661 257° West 423 487 36,000  Level Salt Lake Center
01:55AM 38.9358 -113.0433 257° West 425 489 36,000  Level Salt Lake Center
01:56AM 38.9094 -113.1908 257° West 425 489 36,000  Level Salt Lake Center
01:57AM 38.8839 -113.3392 258° West 425 489 36,000  Level Salt Lake Center
01:58AM 38.8578 -113.4872 257° West 427 491 36,000  Level Salt Lake Center
01:59AM 38.8306 -113.6372 257° West 432 497 36,000  Level Salt Lake Center
02:00AM 38.8042 -113.7856 257° West 431 496 36,000  Level Salt Lake Center
02:01AM 38.7767 -113.9347 257° West 432 497 36,000  Level Salt Lake Center
02:02AM 38.7492 -114.0836 257° West 432 497 36,000  Level Salt Lake Center
02:03AM 38.7211 -114.2333 257° West 433 498 36,000  Level Salt Lake Center
02:04AM 38.6944 -114.3831 257° West 434 499 36,000  Level Salt Lake Center
02:05AM 38.6656 -114.5336 256° West 436 502 36,000  Level Salt Lake Center
02:06AM 38.6372 -114.6836 256° West 436 502 36,000  Level Salt Lake Center
02:07AM 38.6078 -114.8344 256° West 438 504 36,000  Level Salt Lake Center
02:08AM 38.5733 -115.0131 256° West 435 501 36,000  Level Salt Lake Center
02:09AM 38.5444 -115.1639 256° West 438 504 36,000  Level Salt Lake Center
02:10AM 38.5147 -115.3144 256° West 438 504 36,000  Level Salt Lake Center
02:11AM 38.4867 -115.4542 256° West 440 506 36,000  Level Salt Lake Center
02:12AM 38.4572 -115.6058 256° West 440 506 36,000  Level Salt Lake Center
02:13AM 38.4264 -115.7578 256° West 443 510 36,000  Level Salt Lake Center
02:14AM 38.3956 -115.9094 256° West 442 509 36,000  Level Salt Lake Center
02:15AM 38.3647 -116.0611 256° West 443 510 36,000  Level Salt Lake Center
02:16AM 38.3342 -116.2131 256° West 443 510 36,000  Level Salt Lake Center
02:17AM 38.3025 -116.3644 255° West 442 509 36,000  Level Salt Lake Center
02:18AM 38.2733 -116.5175 256° West 445 512 36,000  Level Salt Lake Center
02:19AM 38.2589 -116.6425 262° West 446 513 36,000  Level Oakland Center
02:20AM 38.2392 -116.7961 261° West 444 511 36,000  Level Oakland Center
02:21AM 38.2194 -116.9506 261° West 444 511 36,000  Level Oakland Center
02:22AM 38.2011 -117.1058 262° West 436 502 36,000  Level Oakland Center
02:23AM 38.1778 -117.2639 259° West 457 526 36,000  Level Oakland Center
02:24AM 38.1572 -117.4203 261° West 452 520 36,000  Level Oakland Center
02:25AM 38.1386 -117.5581 260° West 446 513 36,000  Level Oakland Center
02:26AM 38.1181 -117.7122 260° West 446 513 36,000  Level Oakland Center
02:27AM 38.0922 -117.8978 260° West 446 513 36,000  Level Oakland Center
02:28AM 38.0703 -118.0511 260° West 445 512 36,000  Level Oakland Center
02:29AM 38.0492 -118.2067 260° West 446 513 36,000  Level Oakland Center
02:30AM 38.0264 -118.3608 259° West 446 513 36,000  Level Oakland Center
02:31AM 38.0044 -118.5169 260° West 449 517 36,000  Level Oakland Center
02:32AM 37.9825 -118.6700 260° West 443 510 36,000  Level Oakland Center
02:33AM 37.9611 -118.8242 260° West 444 511 36,000  Level Oakland Center
02:34AM 37.9381 -118.9789 259° West 447 514 36,000  Level Oakland Center
02:35AM 37.9144 -119.1344 259° West 450 518 36,000  Level Oakland Center
02:36AM 37.8939 -119.2747 260° West 452 520 36,000  Level Oakland Center
02:37AM 37.8706 -119.4297 259° West 449 517 36,000  Level Oakland Center
02:38AM 37.8467 -119.5858 259° West 451 519 36,000  Level Oakland Center
02:39AM 37.8233 -119.7433 259° West 455 524 36,000  Level Oakland Center
02:40AM 37.7989 -119.9003 259° West 455 524 36,000 -300 Level Oakland Center
02:41AM 37.7742 -120.0561 259° West 453 521 35,400 -1,680 Descending Oakland Center
02:42AM 37.7486 -120.2119 258° West 452 520 32,700 -3,120 Descending Oakland Center
02:43AM 37.7228 -120.3739 259° West 467 537 29,200 -2,940 Descending Oakland Center
02:44AM 37.6961 -120.5336 258° West 466 536 26,800 -2,640 Descending Oakland Center
02:45AM 37.6678 -120.7164 259° West 447 514 23,900 -3,000 Descending Oakland Center
02:46AM 37.6417 -120.8664 258° West 439 505 20,800 -2,640 Descending Oakland Center
02:47AM 37.6203 -121.0156 260° West 433 498 18,600 -2,340 Descending Oakland Center
02:48AM 37.6044 -121.1614 262° West 423 487 16,100 -2,100 Descending Oakland Center
02:49AM 37.5900 -121.2836 262° West 410 472 14,400 -2,040 Descending Oakland Center
02:50AM 37.5744 -121.4153 262° West 387 445 12,100 -1,740 Descending Oakland Center
02:51AM 37.5572 -121.5444 260° West 376 433 11,000 -600 Descending Oakland Center
02:52AM 37.5328 -121.6511 254° West 325 374 10,900 -600 Descending Oakland Center
02:53AM 37.5083 -121.7567 254° West 316 364 9,800 -1,200 Descending Oakland Center
02:54AM 37.4847 -121.8628 254° West 314 361 8,500 -900 Descending Oakland Center
02:55AM 37.4622 -121.9589 254° West 294 338 8,000 -1,440 Descending Oakland Center
02:56AM 37.4781 -122.0469 283° West 286 329 5,700 -2,340 Descending Oakland Center
02:57AM 37.5153 -122.1297 300° West 273 314 3,300 -1,740 Descending Oakland Center
02:58AM 37.5456 -122.2069 296° West 260 299 2,200 -900 Descending Oakland Center
02:59AM 37.5725 -122.2703 298° West 230 265 1,600 -720 Descending Oakland Center
03:00AM 37.5931 -122.3194 298° West 188 216 800 -660 Descending Oakland Center
03:01AM 37.6128 -122.3683 297° West 169 194 300 -540 Descending Oakland Center